sensor_id;sensor_type;location;lat;lon;timestamp;pressure;altitude;pressure_sealevel;temperature;humidity
44001;BME280;29660;42.892;24.710;2023-08-17T04:13:39;97161.84;;;15.91;100.00
44001;BME280;29660;42.892;24.710;2023-08-17T04:19:01;97164.94;;;16.45;100.00
44001;BME280;29660;42.892;24.710;2023-08-17T04:24:24;97164.00;;;16.97;100.00
44001;BME280;29660;42.892;24.710;2023-08-17T04:29:46;97047.16;;;16.72;100.00
44001;BME280;29660;42.892;24.710;2023-08-17T04:35:09;97158.47;;;18.15;100.00
44001;BME280;29660;42.892;24.710;2023-08-17T04:40:32;97125.28;;;18.48;100.00
44001;BME280;29660;42.892;24.710;2023-08-17T04:45:55;97155.88;;;19.10;100.00
44001;BME280;29660;42.892;24.710;2023-08-17T04:51:19;97161.69;;;19.49;100.00
44001;BME280;29660;42.892;24.710;2023-08-17T04:56:41;97150.97;;;19.77;100.00
44001;BME280;29660;42.892;24.710;2023-08-17T05:02:05;97161.66;;;19.85;100.00
44001;BME280;29660;42.892;24.710;2023-08-17T05:07:27;97069.94;;;19.56;100.00
44001;BME280;29660;42.892;24.710;2023-08-17T05:12:49;97161.63;;;20.54;100.00
44001;BME280;29660;42.892;24.710;2023-08-17T05:18:12;97146.63;;;20.44;100.00
44001;BME280;29660;42.892;24.710;2023-08-17T05:23:34;97157.44;;;20.72;100.00
44001;BME280;29660;42.892;24.710;2023-08-17T05:28:57;97129.47;;;20.68;100.00
44001;BME280;29660;42.892;24.710;2023-08-17T05:34:20;97156.56;;;21.00;100.00
44001;BME280;29660;42.892;24.710;2023-08-17T05:39:42;97152.63;;;21.13;100.00
44001;BME280;29660;42.892;24.710;2023-08-17T05:45:05;97066.34;;;20.68;100.00
44001;BME280;29660;42.892;24.710;2023-08-17T05:50:27;97148.69;;;21.42;100.00
44001;BME280;29660;42.892;24.710;2023-08-17T05:55:49;97072.81;;;21.14;100.00
44001;BME280;29660;42.892;24.710;2023-08-17T06:01:12;96654.25;;;18.49;100.00
44001;BME280;29660;42.892;24.710;2023-08-17T06:06:34;97155.59;;;21.94;100.00
44001;BME280;29660;42.892;24.710;2023-08-17T06:11:56;97153.69;;;22.14;100.00
44001;BME280;29660;42.892;24.710;2023-08-17T06:17:18;97139.94;;;22.07;100.00
44001;BME280;29660;42.892;24.710;2023-08-17T06:22:40;97148.56;;;22.28;100.00
44001;BME280;29660;42.892;24.710;2023-08-17T06:28:03;97149.78;;;22.54;100.00
44001;BME280;29660;42.892;24.710;2023-08-17T06:33:25;97130.69;;;22.73;100.00
44001;BME280;29660;42.892;24.710;2023-08-17T06:38:47;97140.63;;;23.08;100.00
44001;BME280;29660;42.892;24.710;2023-08-17T06:44:10;97141.03;;;23.37;100.00
44001;BME280;29660;42.892;24.710;2023-08-17T06:49:32;97147.63;;;23.62;100.00
44001;BME280;29660;42.892;24.710;2023-08-17T06:54:54;97141.22;;;23.77;100.00
44001;BME280;29660;42.892;24.710;2023-08-17T07:00:16;97143.06;;;24.00;100.00
44001;BME280;29660;42.892;24.710;2023-08-17T07:05:42;97143.00;;;24.27;100.00
44001;BME280;29660;42.892;24.710;2023-08-17T07:11:04;97138.38;;;24.31;100.00
44001;BME280;29660;42.892;24.710;2023-08-17T07:16:27;97126.09;;;24.47;100.00
44001;BME280;29660;42.892;24.710;2023-08-17T07:21:50;97013.88;;;24.01;96.63
44001;BME280;29660;42.892;24.710;2023-08-17T07:27:12;97107.78;;;24.89;90.33
44001;BME280;29660;42.892;24.710;2023-08-17T07:32:34;97131.16;;;25.38;89.86
44001;BME280;29660;42.892;24.710;2023-08-17T07:37:57;97135.56;;;25.57;87.77
44001;BME280;29660;42.892;24.710;2023-08-17T07:43:29;97128.28;;;25.79;81.96
44001;BME280;29660;42.892;24.710;2023-08-17T07:48:51;97133.50;;;26.12;81.42
44001;BME280;29660;42.892;24.710;2023-08-17T07:54:13;96906.69;;;24.89;75.20
44001;BME280;29660;42.892;24.710;2023-08-17T07:59:35;97132.47;;;26.49;78.59
44001;BME280;29660;42.892;24.710;2023-08-17T08:04:58;97125.84;;;26.61;78.97
44001;BME280;29660;42.892;24.710;2023-08-17T08:10:20;97114.88;;;26.72;80.62
44001;BME280;29660;42.892;24.710;2023-08-17T08:15:42;97127.41;;;27.08;79.31
44001;BME280;29660;42.892;24.710;2023-08-17T08:21:04;97096.09;;;27.27;75.11
44001;BME280;29660;42.892;24.710;2023-08-17T08:26:26;96990.22;;;26.56;73.52
44001;BME280;29660;42.892;24.710;2023-08-17T08:31:49;97106.25;;;27.48;72.97
44001;BME280;29660;42.892;24.710;2023-08-17T08:37:11;97089.38;;;27.60;70.42
44001;BME280;29660;42.892;24.710;2023-08-17T08:42:33;97087.31;;;27.97;70.63
44001;BME280;29660;42.892;24.710;2023-08-17T08:47:56;97087.22;;;28.18;68.17
44001;BME280;29660;42.892;24.710;2023-08-17T08:53:24;97019.06;;;28.13;66.83
44001;BME280;29660;42.892;24.710;2023-08-17T08:58:49;97005.09;;;27.93;62.54
44001;BME280;29660;42.892;24.710;2023-08-17T09:04:15;96937.34;;;27.90;59.81
44001;BME280;29660;42.892;24.710;2023-08-17T09:09:38;97058.69;;;28.64;54.52
44001;BME280;29660;42.892;24.710;2023-08-17T09:15:00;97057.28;;;28.94;50.68
44001;BME280;29660;42.892;24.710;2023-08-17T09:26:08;96991.47;;;28.83;50.30
44001;BME280;29660;42.892;24.710;2023-08-17T09:31:31;97063.34;;;29.16;47.80
44001;BME280;29660;42.892;24.710;2023-08-17T09:36:54;96845.69;;;27.98;46.49
44001;BME280;29660;42.892;24.710;2023-08-17T09:42:16;96955.38;;;28.84;47.65
44001;BME280;29660;42.892;24.710;2023-08-17T09:47:42;97055.44;;;29.59;47.46
44001;BME280;29660;42.892;24.710;2023-08-17T09:53:04;97046.94;;;29.46;46.33
44001;BME280;29660;42.892;24.710;2023-08-17T09:58:27;97052.50;;;29.39;46.23
44001;BME280;29660;42.892;24.710;2023-08-17T10:03:52;96959.53;;;29.03;45.80
44001;BME280;29660;42.892;24.710;2023-08-17T10:09:23;96937.47;;;29.10;45.99
44001;BME280;29660;42.892;24.710;2023-08-17T10:14:54;96703.94;;;27.50;45.73
44001;BME280;29660;42.892;24.710;2023-08-17T10:20:18;97027.66;;;29.84;45.14
44001;BME280;29660;42.892;24.710;2023-08-17T10:25:42;96944.28;;;29.33;44.67
44001;BME280;29660;42.892;24.710;2023-08-17T10:31:05;97024.88;;;29.88;45.18
44001;BME280;29660;42.892;24.710;2023-08-17T10:36:32;96956.31;;;29.43;45.72
44001;BME280;29660;42.892;24.710;2023-08-17T10:41:57;97008.66;;;29.93;45.14
44001;BME280;29660;42.892;24.710;2023-08-17T10:47:32;97001.41;;;30.33;45.75
44001;BME280;29660;42.892;24.710;2023-08-17T10:52:57;96914.59;;;29.78;45.17
44001;BME280;29660;42.892;24.710;2023-08-17T10:58:19;97017.47;;;30.39;44.55
44001;BME280;29660;42.892;24.710;2023-08-17T11:03:42;96993.88;;;30.38;44.31
44001;BME280;29660;42.892;24.710;2023-08-17T11:09:08;96995.25;;;30.49;44.02
44001;BME280;29660;42.892;24.710;2023-08-17T11:14:34;97003.56;;;30.69;44.06
44001;BME280;29660;42.892;24.710;2023-08-17T11:19:56;96999.34;;;30.65;43.16
44001;BME280;29660;42.892;24.710;2023-08-17T11:25:18;96984.84;;;30.61;44.52
44001;BME280;29660;42.892;24.710;2023-08-17T11:30:41;96988.97;;;30.49;43.43
44001;BME280;29660;42.892;24.710;2023-08-17T11:36:09;96994.22;;;30.16;44.11
44001;BME280;29660;42.892;24.710;2023-08-17T11:41:32;96992.41;;;30.02;44.88
44001;BME280;29660;42.892;24.710;2023-08-17T11:46:54;96986.09;;;30.05;44.93
44001;BME280;29660;42.892;24.710;2023-08-17T11:52:16;96991.97;;;30.07;44.05
44001;BME280;29660;42.892;24.710;2023-08-17T11:57:39;96955.56;;;30.00;45.04
44001;BME280;29660;42.892;24.710;2023-08-17T12:03:01;96970.88;;;30.51;43.71
44001;BME280;29660;42.892;24.710;2023-08-17T12:08:24;96947.47;;;30.63;41.37
44001;BME280;29660;42.892;24.710;2023-08-17T12:13:50;96845.13;;;30.01;40.24
44001;BME280;29660;42.892;24.710;2023-08-17T12:19:13;96871.09;;;30.67;39.71
44001;BME280;29660;42.892;24.710;2023-08-17T12:24:35;96925.63;;;30.96;40.77
44001;BME280;29660;42.892;24.710;2023-08-17T12:29:58;96949.44;;;30.63;41.79
44001;BME280;29660;42.892;24.710;2023-08-17T12:35:20;96955.22;;;30.68;41.57
44001;BME280;29660;42.892;24.710;2023-08-17T12:40:45;96932.28;;;30.98;40.51
44001;BME280;29660;42.892;24.710;2023-08-17T12:46:07;96882.00;;;30.94;40.96
44001;BME280;29660;42.892;24.710;2023-08-17T12:51:29;96922.16;;;31.51;40.45
44001;BME280;29660;42.892;24.710;2023-08-17T12:56:52;96924.28;;;31.80;40.77
44001;BME280;29660;42.892;24.710;2023-08-17T13:02:20;96893.59;;;31.62;39.70
44001;BME280;29660;42.892;24.710;2023-08-17T13:07:42;96853.28;;;31.32;39.80
44001;BME280;29660;42.892;24.710;2023-08-17T13:13:04;96930.09;;;32.02;40.78
44001;BME280;29660;42.892;24.710;2023-08-17T13:18:28;96932.41;;;31.87;40.50
44001;BME280;29660;42.892;24.710;2023-08-17T13:23:51;96921.22;;;31.94;40.50
44001;BME280;29660;42.892;24.710;2023-08-17T13:29:13;96915.00;;;32.07;39.58
44001;BME280;29660;42.892;24.710;2023-08-17T13:34:35;96871.91;;;31.96;39.87
44001;BME280;29660;42.892;24.710;2023-08-17T13:39:57;96840.19;;;31.72;40.11
44001;BME280;29660;42.892;24.710;2023-08-17T13:45:20;96926.31;;;31.96;39.86
44001;BME280;29660;42.892;24.710;2023-08-17T13:50:42;96924.44;;;31.73;40.62
44001;BME280;29660;42.892;24.710;2023-08-17T13:56:05;96917.44;;;31.88;40.71
44001;BME280;29660;42.892;24.710;2023-08-17T14:01:27;96908.50;;;31.64;40.05
44001;BME280;29660;42.892;24.710;2023-08-17T14:06:49;96892.72;;;31.65;40.66
44001;BME280;29660;42.892;24.710;2023-08-17T14:12:13;96919.47;;;31.84;39.92
44001;BME280;29660;42.892;24.710;2023-08-17T14:17:35;96890.06;;;31.61;40.12
44001;BME280;29660;42.892;24.710;2023-08-17T14:22:57;96928.91;;;31.67;40.36
44001;BME280;29660;42.892;24.710;2023-08-17T14:28:19;96922.81;;;31.39;41.21
44001;BME280;29660;42.892;24.710;2023-08-17T14:33:42;96935.94;;;31.12;41.73
44001;BME280;29660;42.892;24.710;2023-08-17T14:39:04;96910.53;;;30.84;41.92
44001;BME280;29660;42.892;24.710;2023-08-17T14:44:26;96929.88;;;31.00;41.02
44001;BME280;29660;42.892;24.710;2023-08-17T14:49:48;96931.28;;;31.09;40.17
44001;BME280;29660;42.892;24.710;2023-08-17T14:55:12;96928.19;;;31.07;40.00
44001;BME280;29660;42.892;24.710;2023-08-17T15:00:35;96920.81;;;31.20;40.09
44001;BME280;29660;42.892;24.710;2023-08-17T15:05:57;96844.56;;;30.77;40.63
44001;BME280;29660;42.892;24.710;2023-08-17T15:11:19;96925.22;;;31.37;37.52
44001;BME280;29660;42.892;24.710;2023-08-17T15:16:42;96835.31;;;30.67;37.40
44001;BME280;29660;42.892;24.710;2023-08-17T15:22:04;96920.75;;;31.03;36.98
44001;BME280;29660;42.892;24.710;2023-08-17T15:27:26;96858.03;;;30.71;37.94
44001;BME280;29660;42.892;24.710;2023-08-17T15:32:49;96831.41;;;30.65;38.93
44001;BME280;29660;42.892;24.710;2023-08-17T15:38:11;96914.91;;;31.21;39.30
44001;BME280;29660;42.892;24.710;2023-08-17T15:43:33;96909.09;;;31.16;39.78
44001;BME280;29660;42.892;24.710;2023-08-17T15:48:56;96914.03;;;31.04;40.05
44001;BME280;29660;42.892;24.710;2023-08-17T15:54:18;96923.25;;;30.78;40.81
44001;BME280;29660;42.892;24.710;2023-08-17T15:59:54;96942.94;;;30.73;42.15
44001;BME280;29660;42.892;24.710;2023-08-17T16:05:17;96879.34;;;30.47;41.71
44001;BME280;29660;42.892;24.710;2023-08-17T16:10:39;96920.38;;;30.62;42.25
44001;BME280;29660;42.892;24.710;2023-08-17T16:16:01;96926.88;;;30.48;43.16
44001;BME280;29660;42.892;24.710;2023-08-17T16:21:23;96843.03;;;29.86;44.02
44001;BME280;29660;42.892;24.710;2023-08-17T16:26:45;96859.69;;;29.75;44.88
44001;BME280;29660;42.892;24.710;2023-08-17T16:32:07;96939.28;;;30.09;45.59
44001;BME280;29660;42.892;24.710;2023-08-17T16:37:31;96882.69;;;29.61;45.67
44001;BME280;29660;42.892;24.710;2023-08-17T16:42:53;96946.72;;;29.85;46.36
44001;BME280;29660;42.892;24.710;2023-08-17T16:48:21;96931.81;;;29.55;47.28
44001;BME280;29660;42.892;24.710;2023-08-17T16:53:45;96951.19;;;29.45;48.96
44001;BME280;29660;42.892;24.710;2023-08-17T16:59:11;96964.44;;;29.19;51.73
44001;BME280;29660;42.892;24.710;2023-08-17T17:04:35;96960.56;;;28.75;56.11
44001;BME280;29660;42.892;24.710;2023-08-17T17:09:58;96907.94;;;27.98;60.36
44001;BME280;29660;42.892;24.710;2023-08-17T17:15:20;96972.47;;;28.09;60.21
44001;BME280;29660;42.892;24.710;2023-08-17T17:20:42;96984.81;;;27.80;61.83
44001;BME280;29660;42.892;24.710;2023-08-17T17:26:04;96927.16;;;27.17;63.73
44001;BME280;29660;42.892;24.710;2023-08-17T17:31:29;96970.19;;;27.16;65.63
44001;BME280;29660;42.892;24.710;2023-08-17T17:36:51;96987.06;;;26.86;68.78
44001;BME280;29660;42.892;24.710;2023-08-17T17:42:14;96956.63;;;26.41;70.60
44001;BME280;29660;42.892;24.710;2023-08-17T17:47:36;97007.03;;;26.51;72.00
44001;BME280;29660;42.892;24.710;2023-08-17T17:52:58;96956.22;;;26.11;77.13
44001;BME280;29660;42.892;24.710;2023-08-17T17:58:20;96958.09;;;25.75;81.17
44001;BME280;29660;42.892;24.710;2023-08-17T18:03:43;97022.16;;;25.88;83.13
44001;BME280;29660;42.892;24.710;2023-08-17T18:09:05;97009.94;;;25.60;84.16
44001;BME280;29660;42.892;24.710;2023-08-17T18:14:27;97031.00;;;25.56;84.94
44001;BME280;29660;42.892;24.710;2023-08-17T18:19:49;97039.50;;;25.37;85.04
44001;BME280;29660;42.892;24.710;2023-08-17T18:25:12;97016.66;;;25.01;86.58
44001;BME280;29660;42.892;24.710;2023-08-17T18:30:34;97053.28;;;24.96;88.93
44001;BME280;29660;42.892;24.710;2023-08-17T18:35:57;97055.09;;;24.78;89.26
44001;BME280;29660;42.892;24.710;2023-08-17T18:41:19;96998.94;;;24.29;93.93
44001;BME280;29660;42.892;24.710;2023-08-17T18:46:41;97059.50;;;24.45;94.27
44001;BME280;29660;42.892;24.710;2023-08-17T18:52:04;97056.56;;;24.27;96.50
44001;BME280;29660;42.892;24.710;2023-08-17T18:57:26;97062.72;;;24.20;95.75
44001;BME280;29660;42.892;24.710;2023-08-17T19:02:49;97061.44;;;24.07;96.82
44001;BME280;29660;42.892;24.710;2023-08-17T19:08:11;97059.78;;;23.99;98.47
44001;BME280;29660;42.892;24.710;2023-08-17T19:13:33;96960.31;;;23.08;100.00
44001;BME280;29660;42.892;24.710;2023-08-17T19:18:56;97054.06;;;23.44;100.00
44001;BME280;29660;42.892;24.710;2023-08-17T19:24:18;97062.56;;;23.39;100.00
44001;BME280;29660;42.892;24.710;2023-08-17T19:29:40;96958.91;;;22.64;100.00
44001;BME280;29660;42.892;24.710;2023-08-17T19:35:03;97052.63;;;23.23;100.00
44001;BME280;29660;42.892;24.710;2023-08-17T19:40:25;97055.13;;;23.09;100.00
44001;BME280;29660;42.892;24.710;2023-08-17T19:45:49;97053.97;;;23.10;100.00
44001;BME280;29660;42.892;24.710;2023-08-17T19:51:11;97049.19;;;23.00;100.00
44001;BME280;29660;42.892;24.710;2023-08-17T19:56:33;96990.53;;;22.49;100.00
44001;BME280;29660;42.892;24.710;2023-08-17T20:01:56;97053.22;;;22.87;100.00
44001;BME280;29660;42.892;24.710;2023-08-17T20:07:18;97082.06;;;22.68;100.00
44001;BME280;29660;42.892;24.710;2023-08-17T20:12:40;97074.94;;;22.37;100.00
44001;BME280;29660;42.892;24.710;2023-08-17T20:18:03;97066.28;;;22.32;100.00
44001;BME280;29660;42.892;24.710;2023-08-17T20:23:25;97071.72;;;22.32;100.00
44001;BME280;29660;42.892;24.710;2023-08-17T20:28:47;97057.06;;;22.13;100.00
44001;BME280;29660;42.892;24.710;2023-08-17T20:34:09;96959.63;;;21.46;100.00
44001;BME280;29660;42.892;24.710;2023-08-17T20:39:33;97049.47;;;22.03;100.00
44001;BME280;29660;42.892;24.710;2023-08-17T20:44:57;97064.19;;;22.02;100.00
44001;BME280;29660;42.892;24.710;2023-08-17T20:50:19;97066.13;;;22.01;100.00
44001;BME280;29660;42.892;24.710;2023-08-17T20:55:41;97070.66;;;21.94;100.00
44001;BME280;29660;42.892;24.710;2023-08-17T21:01:04;97064.13;;;21.98;100.00
44001;BME280;29660;42.892;24.710;2023-08-17T21:06:26;97070.66;;;21.94;100.00
44001;BME280;29660;42.892;24.710;2023-08-17T21:11:48;97070.06;;;21.85;100.00
44001;BME280;29660;42.892;24.710;2023-08-17T21:17:11;97072.66;;;21.58;100.00
44001;BME280;29660;42.892;24.710;2023-08-17T21:22:33;97052.00;;;21.34;100.00
44001;BME280;29660;42.892;24.710;2023-08-17T21:27:55;97072.72;;;21.26;100.00
44001;BME280;29660;42.892;24.710;2023-08-17T21:33:17;97089.44;;;21.28;100.00
44001;BME280;29660;42.892;24.710;2023-08-17T21:38:39;97026.75;;;20.79;100.00
44001;BME280;29660;42.892;24.710;2023-08-17T21:44:02;97071.97;;;21.10;100.00
44001;BME280;29660;42.892;24.710;2023-08-17T21:49:24;97094.19;;;21.16;100.00
44001;BME280;29660;42.892;24.710;2023-08-17T21:54:48;97016.53;;;20.56;100.00
44001;BME280;29660;42.892;24.710;2023-08-17T22:00:11;97093.53;;;21.03;100.00
44001;BME280;29660;42.892;24.710;2023-08-17T22:05:34;97100.78;;;20.99;100.00
44001;BME280;29660;42.892;24.710;2023-08-17T22:10:56;96854.28;;;19.41;100.00
44001;BME280;29660;42.892;24.710;2023-08-17T22:16:18;96810.84;;;18.89;100.00
44001;BME280;29660;42.892;24.710;2023-08-17T22:21:40;97102.00;;;20.86;100.00
44001;BME280;29660;42.892;24.710;2023-08-17T22:27:04;97098.00;;;20.79;100.00
44001;BME280;29660;42.892;24.710;2023-08-17T22:32:26;97047.28;;;20.48;100.00
44001;BME280;29660;42.892;24.710;2023-08-17T22:37:48;97088.63;;;20.61;100.00
44001;BME280;29660;42.892;24.710;2023-08-17T22:43:11;97035.28;;;20.18;100.00
44001;BME280;29660;42.892;24.710;2023-08-17T22:48:33;97098.22;;;20.43;100.00
44001;BME280;29660;42.892;24.710;2023-08-17T22:53:55;96956.03;;;19.45;100.00
44001;BME280;29660;42.892;24.710;2023-08-17T22:59:18;97089.09;;;20.19;100.00
44001;BME280;29660;42.892;24.710;2023-08-17T23:04:41;97104.03;;;20.13;100.00
44001;BME280;29660;42.892;24.710;2023-08-17T23:10:04;97105.31;;;20.03;100.00
44001;BME280;29660;42.892;24.710;2023-08-17T23:15:26;97110.91;;;20.10;100.00
44001;BME280;29660;42.892;24.710;2023-08-17T23:20:49;97002.41;;;19.31;100.00
44001;BME280;29660;42.892;24.710;2023-08-17T23:26:11;97109.72;;;19.96;100.00
44001;BME280;29660;42.892;24.710;2023-08-17T23:31:34;97095.56;;;19.86;100.00
44001;BME280;29660;42.892;24.710;2023-08-17T23:36:56;97089.47;;;19.90;100.00
44001;BME280;29660;42.892;24.710;2023-08-17T23:42:18;97093.13;;;19.81;100.00
44001;BME280;29660;42.892;24.710;2023-08-17T23:47:40;97011.59;;;19.43;100.00
44001;BME280;29660;42.892;24.710;2023-08-17T23:53:03;97004.22;;;19.27;100.00
44001;BME280;29660;42.892;24.710;2023-08-17T23:58:25;97082.88;;;19.75;100.00
